createdAt,value
2022-07-28T04:00:35.704Z,51.38
2022-07-28T04:01:35.728Z,50.88
2022-07-28T04:02:35.762Z,50.80
2022-07-28T04:03:43.571Z,51.31
2022-07-28T04:04:36.639Z,51.20
2022-07-28T04:05:35.622Z,51.20
2022-07-28T04:06:35.606Z,50.90
2022-07-28T04:07:35.591Z,51.40
2022-07-28T04:08:35.590Z,50.90
2022-07-28T04:09:35.580Z,51.31
2022-07-28T04:10:35.558Z,51.40
2022-07-28T04:11:40.582Z,51.91
2022-07-28T04:12:35.536Z,51.20
2022-07-28T04:13:35.523Z,51.71
2022-07-28T04:14:35.528Z,52.01
2022-07-28T04:15:35.508Z,51.81
2022-07-28T04:16:35.539Z,50.70
2022-07-28T04:17:35.488Z,51.40
2022-07-28T04:18:35.472Z,50.70
2022-07-28T04:19:35.466Z,50.88
2022-07-28T04:20:35.453Z,51.18
2022-07-28T04:21:35.435Z,51.48
2022-07-28T04:22:40.450Z,50.48
2022-07-28T04:23:35.414Z,50.98
2022-07-28T04:24:35.418Z,51.18
2022-07-28T04:25:35.389Z,50.68
2022-07-28T04:26:35.380Z,51.18
2022-07-28T04:27:35.368Z,50.88
2022-07-28T04:28:35.361Z,51.18
2022-07-28T04:29:35.347Z,50.57
2022-07-28T04:30:35.437Z,50.68
2022-07-28T04:31:36.324Z,51.48
2022-07-28T04:32:35.314Z,50.68
2022-07-28T04:33:40.325Z,50.88
2022-07-28T04:34:35.293Z,50.37
2022-07-28T04:35:35.287Z,50.78
2022-07-28T04:36:35.312Z,50.68
2022-07-28T04:37:35.256Z,50.05
2022-07-28T04:38:35.273Z,50.78
2022-07-28T04:39:35.238Z,50.85
2022-07-28T04:40:35.245Z,49.95
2022-07-28T04:41:35.214Z,50.68
2022-07-28T04:42:35.203Z,50.56
2022-07-28T04:43:35.191Z,50.56
2022-07-28T04:44:40.202Z,50.88
2022-07-28T04:45:35.221Z,50.68
2022-07-28T04:46:35.202Z,50.68
2022-07-28T04:47:35.149Z,50.48
2022-07-28T04:48:35.239Z,50.68
2022-07-28T04:49:35.498Z,51.36
2022-07-28T04:50:35.129Z,51.48
2022-07-28T04:51:35.102Z,51.18
2022-07-28T04:52:35.092Z,50.68
2022-07-28T04:53:35.078Z,50.88
2022-07-28T04:54:35.069Z,51.18
2022-07-28T04:55:40.089Z,51.68
2022-07-28T04:56:35.066Z,50.88
2022-07-28T04:57:35.036Z,51.18
2022-07-28T04:58:35.026Z,51.38
2022-07-28T04:59:35.012Z,51.48
2022-07-28T05:00:35.014Z,51.38
2022-07-28T05:01:35.032Z,51.18
2022-07-28T05:02:34.979Z,51.48
2022-07-28T05:03:36.418Z,50.68
2022-07-28T05:04:35.214Z,51.79
2022-07-28T05:05:34.957Z,51.89
2022-07-28T05:06:39.960Z,51.79
2022-07-28T05:07:34.922Z,51.79
2022-07-28T05:08:34.913Z,51.38
2022-07-28T05:09:34.902Z,50.96
2022-07-28T05:10:34.898Z,51.66
2022-07-28T05:11:34.877Z,51.16
2022-07-28T05:12:34.868Z,51.06
2022-07-28T05:13:34.854Z,50.68
2022-07-28T05:14:34.844Z,51.18
2022-07-28T05:15:34.842Z,51.66
2022-07-28T05:16:34.856Z,51.16
2022-07-28T05:17:39.831Z,51.56
2022-07-28T05:18:34.815Z,51.18
2022-07-28T05:19:34.787Z,51.28
2022-07-28T05:20:34.789Z,52.19
2022-07-28T05:21:34.769Z,51.08
2022-07-28T05:22:34.757Z,51.56
2022-07-28T05:23:34.744Z,51.06
2022-07-28T05:24:34.734Z,51.16
2022-07-28T05:25:34.730Z,51.56
2022-07-28T05:26:34.712Z,51.79
2022-07-28T05:27:34.700Z,51.26
2022-07-28T05:28:39.712Z,51.16
2022-07-28T05:29:46.708Z,52.06
2022-07-28T05:30:35.676Z,51.06
2022-07-28T05:31:34.755Z,51.16
2022-07-28T05:32:34.644Z,51.64
2022-07-28T05:33:34.631Z,50.53
2022-07-28T05:34:34.623Z,50.73
2022-07-28T05:35:34.625Z,50.63
2022-07-28T05:36:34.602Z,50.33
2022-07-28T05:37:34.597Z,50.53
2022-07-28T05:38:34.579Z,50.73
2022-07-28T05:39:39.591Z,50.53
2022-07-28T05:40:34.560Z,50.73
2022-07-28T05:41:34.550Z,50.63
2022-07-28T05:42:34.536Z,51.14
2022-07-28T05:43:34.523Z,51.34
2022-07-28T05:44:38.296Z,51.43
2022-07-28T05:45:34.596Z,50.53
2022-07-28T05:46:34.499Z,51.43
2022-07-28T05:47:34.488Z,50.83
2022-07-28T05:48:34.510Z,50.83
2022-07-28T05:49:34.454Z,51.03
2022-07-28T05:50:39.468Z,51.14
2022-07-28T05:51:38.363Z,51.14
2022-07-28T05:52:35.441Z,51.54
2022-07-28T05:53:34.409Z,51.43
2022-07-28T05:54:34.408Z,51.54
2022-07-28T05:55:34.419Z,50.83
2022-07-28T05:56:34.389Z,51.01
2022-07-28T05:57:34.365Z,50.81
2022-07-28T05:58:34.354Z,50.60
2022-07-28T05:59:34.429Z,50.60
2022-07-28T06:00:34.332Z,50.60
2022-07-28T06:01:39.405Z,50.81
2022-07-28T06:02:34.454Z,50.00
2022-07-28T06:03:39.790Z,50.40
2022-07-28T06:04:35.772Z,50.83
2022-07-28T06:05:34.319Z,51.51
2022-07-28T06:06:35.273Z,51.11
2022-07-28T06:07:43.581Z,51.01
2022-07-28T06:08:35.243Z,51.11
2022-07-28T06:09:34.235Z,50.20
2022-07-28T06:10:34.222Z,51.09
2022-07-28T06:11:34.221Z,50.40
2022-07-28T06:12:39.218Z,50.18
2022-07-28T06:13:34.186Z,50.18
2022-07-28T06:14:34.176Z,50.38
2022-07-28T06:15:34.166Z,50.48
2022-07-28T06:16:34.197Z,50.89
2022-07-28T06:17:34.146Z,50.51
2022-07-28T06:18:34.133Z,51.09
2022-07-28T06:19:34.135Z,51.61
2022-07-28T06:20:34.110Z,51.49
2022-07-28T06:21:34.109Z,51.59
2022-07-28T06:22:34.097Z,51.09
2022-07-28T06:23:39.106Z,51.39
2022-07-28T06:24:34.063Z,51.18
2022-07-28T06:25:34.052Z,50.86
2022-07-28T06:26:34.054Z,50.68
2022-07-28T06:27:34.032Z,49.85
2022-07-28T06:28:34.025Z,50.35
2022-07-28T06:29:34.018Z,50.26
2022-07-28T06:30:34.006Z,50.26
2022-07-28T06:31:34.044Z,50.89
2022-07-28T06:32:33.979Z,51.46
2022-07-28T06:33:33.968Z,50.66
2022-07-28T06:34:38.998Z,50.43
2022-07-28T06:35:43.269Z,50.53
2022-07-28T06:36:34.943Z,50.11
2022-07-28T06:37:33.923Z,48.88
2022-07-28T06:38:33.909Z,49.58
2022-07-28T06:39:33.902Z,49.18
2022-07-28T06:40:33.886Z,49.18
2022-07-28T06:41:33.911Z,48.46
2022-07-28T06:42:33.867Z,49.66
2022-07-28T06:43:36.837Z,49.16
2022-07-28T06:44:57.293Z,48.66
2022-07-28T06:45:39.852Z,48.86
2022-07-28T06:46:33.956Z,48.83
2022-07-28T06:47:33.829Z,48.86
2022-07-28T06:48:33.860Z,48.93
2022-07-28T06:49:33.786Z,48.66
2022-07-28T06:50:33.783Z,48.86
2022-07-28T06:51:33.791Z,49.18
2022-07-28T06:52:33.756Z,49.38
2022-07-28T06:53:34.806Z,49.68
2022-07-28T06:54:33.730Z,49.68
2022-07-28T06:55:35.089Z,50.79
2022-07-28T06:56:38.746Z,49.98
2022-07-28T06:57:33.930Z,49.98
2022-07-28T06:58:33.685Z,49.88
2022-07-28T06:59:33.677Z,49.18
2022-07-28T07:00:33.786Z,49.28
2022-07-28T07:01:33.805Z,49.18
2022-07-28T07:02:33.665Z,49.26
2022-07-28T07:03:33.635Z,49.18
2022-07-28T07:04:33.708Z,49.16
2022-07-28T07:05:33.614Z,48.98
2022-07-28T07:06:33.605Z,48.96
2022-07-28T07:07:42.982Z,48.96
2022-07-28T07:08:33.580Z,49.05
2022-07-28T07:09:33.577Z,48.96
2022-07-28T07:10:33.555Z,49.04
2022-07-28T07:11:33.543Z,49.13
2022-07-28T07:12:33.540Z,48.63
2022-07-28T07:13:33.535Z,48.81
2022-07-28T07:14:33.508Z,48.81
2022-07-28T07:15:35.027Z,48.21
2022-07-28T07:16:33.579Z,48.79
2022-07-28T07:17:33.521Z,48.28
2022-07-28T07:18:38.490Z,47.58
2022-07-28T07:19:33.459Z,47.99
2022-07-28T07:20:33.450Z,48.49
2022-07-28T07:21:33.454Z,47.99
2022-07-28T07:22:33.422Z,47.86
2022-07-28T07:23:33.429Z,48.76
2022-07-28T07:24:33.398Z,48.36
2022-07-28T07:25:33.394Z,48.76
2022-07-28T07:26:33.395Z,48.46
2022-07-28T07:27:33.381Z,48.76
2022-07-28T07:28:33.353Z,48.76
2022-07-28T07:29:38.365Z,48.36
2022-07-28T07:30:33.363Z,48.26
2022-07-28T07:31:33.385Z,48.36
2022-07-28T07:32:33.320Z,48.86
2022-07-28T07:33:33.303Z,48.86
2022-07-28T07:34:33.292Z,48.66
2022-07-28T07:35:33.411Z,48.96
2022-07-28T07:36:33.271Z,48.86
2022-07-28T07:37:33.279Z,48.46
2022-07-28T07:38:33.245Z,49.16
2022-07-28T07:39:33.264Z,48.86
2022-07-28T07:40:38.246Z,49.07
2022-07-28T07:41:33.211Z,49.16
2022-07-28T07:42:33.213Z,48.84
2022-07-28T07:43:33.259Z,49.07
2022-07-28T07:44:33.182Z,49.04
2022-07-28T07:45:33.167Z,49.16
2022-07-28T07:46:33.315Z,49.24
2022-07-28T07:47:33.152Z,49.26
2022-07-28T07:48:33.389Z,49.04
2022-07-28T07:49:45.093Z,48.74
2022-07-28T07:50:34.107Z,49.34
2022-07-28T07:51:38.165Z,49.24
2022-07-28T07:52:33.098Z,48.94
2022-07-28T07:53:33.080Z,48.94
2022-07-28T07:54:33.108Z,49.34
2022-07-28T07:55:37.459Z,48.94
2022-07-28T07:56:33.051Z,48.94
2022-07-28T07:57:33.060Z,48.92
2022-07-28T07:58:33.025Z,48.94
2022-07-28T07:59:33.009Z,48.94
2022-07-28T08:00:33.045Z,48.82
2022-07-28T08:01:33.103Z,48.82
2022-07-28T08:02:38.009Z,49.82
2022-07-28T08:03:32.967Z,48.82
2022-07-28T08:04:37.399Z,49.24
2022-07-28T08:05:35.974Z,48.92
2022-07-28T08:06:32.992Z,49.02
2022-07-28T08:07:32.996Z,48.90
2022-07-28T08:08:37.303Z,49.49
2022-07-28T08:09:33.898Z,48.29
2022-07-28T08:10:32.943Z,47.87
2022-07-28T08:11:32.954Z,48.87
2022-07-28T08:12:32.959Z,48.27
2022-07-28T08:13:37.879Z,48.37
2022-07-28T08:14:32.917Z,48.25
2022-07-28T08:15:32.833Z,48.45
2022-07-28T08:16:32.889Z,48.45
2022-07-28T08:17:32.826Z,48.45
2022-07-28T08:18:32.814Z,48.25
2022-07-28T08:19:32.804Z,48.14
2022-07-28T08:20:32.780Z,48.25
2022-07-28T08:21:32.772Z,48.45
2022-07-28T08:22:32.759Z,48.25
2022-07-28T08:23:32.764Z,48.65
2022-07-28T08:24:37.758Z,48.35
2022-07-28T08:25:32.723Z,48.52
2022-07-28T08:26:32.712Z,48.22
2022-07-28T08:27:32.721Z,48.22
2022-07-28T08:28:32.706Z,48.13
2022-07-28T08:29:32.682Z,48.20
2022-07-28T08:30:33.252Z,48.20
2022-07-28T08:31:32.771Z,47.98
2022-07-28T08:32:32.641Z,47.38
2022-07-28T08:33:32.644Z,47.28
2022-07-28T08:34:33.765Z,47.06
2022-07-28T08:35:37.644Z,47.36
2022-07-28T08:36:32.598Z,46.66
2022-07-28T08:37:32.589Z,46.66
2022-07-28T08:38:32.626Z,46.56
2022-07-28T08:39:32.567Z,46.73
2022-07-28T08:40:32.804Z,46.84
2022-07-28T08:41:33.387Z,47.24
2022-07-28T08:42:32.538Z,47.03
2022-07-28T08:43:32.567Z,46.94
2022-07-28T08:44:32.514Z,46.84
2022-07-28T08:45:37.016Z,46.94
2022-07-28T08:46:37.608Z,46.86
2022-07-28T08:48:07.654Z,47.45
2022-07-28T08:48:33.589Z,47.45
2022-07-28T08:49:32.459Z,47.16
2022-07-28T08:50:32.445Z,47.14
2022-07-28T08:51:32.440Z,46.94
2022-07-28T08:52:32.428Z,46.84
2022-07-28T08:53:32.426Z,47.02
2022-07-28T08:54:32.403Z,46.22
2022-07-28T08:55:32.575Z,46.31
2022-07-28T08:56:32.614Z,45.32
2022-07-28T08:57:37.398Z,45.90
2022-07-28T08:58:32.376Z,45.67
2022-07-28T08:59:32.347Z,45.78
2022-07-28T09:00:32.341Z,45.67
2022-07-28T09:01:38.643Z,45.78
2022-07-28T09:02:33.466Z,45.87
2022-07-28T09:03:32.399Z,46.97
2022-07-28T09:04:32.298Z,45.97
2022-07-28T09:05:32.289Z,45.75
2022-07-28T09:06:32.372Z,46.35
2022-07-28T09:07:32.297Z,45.83
2022-07-28T09:08:37.283Z,46.03
2022-07-28T09:09:32.239Z,46.23
2022-07-28T09:10:32.226Z,46.03
2022-07-28T09:11:32.221Z,46.03
2022-07-28T09:12:32.202Z,46.03
2022-07-28T09:13:32.193Z,45.63
2022-07-28T09:14:32.209Z,45.73
2022-07-28T09:15:32.230Z,46.03
2022-07-28T09:16:32.301Z,45.90
2022-07-28T09:17:32.152Z,45.61
2022-07-28T09:18:32.145Z,46.11
2022-07-28T09:19:37.161Z,46.20
2022-07-28T09:20:32.118Z,46.70
2022-07-28T09:21:32.106Z,46.60
2022-07-28T09:22:32.095Z,46.19
2022-07-28T09:23:43.244Z,45.81
2022-07-28T09:24:33.085Z,46.20
2022-07-28T09:25:32.061Z,45.90
2022-07-28T09:26:32.055Z,45.81
2022-07-28T09:27:32.041Z,45.63
2022-07-28T09:28:32.029Z,45.63
2022-07-28T09:29:32.029Z,45.53
2022-07-28T09:30:37.028Z,45.83
2022-07-28T09:31:32.038Z,45.81
2022-07-28T09:32:32.000Z,45.51
2022-07-28T09:33:41.799Z,45.09
2022-07-28T09:34:32.982Z,45.79
2022-07-28T09:35:31.951Z,45.29
2022-07-28T09:36:31.939Z,46.08
2022-07-28T09:37:31.935Z,45.19
2022-07-28T09:38:31.921Z,45.07
2022-07-28T09:39:31.943Z,45.27
2022-07-28T09:40:31.896Z,45.56
2022-07-28T09:41:36.910Z,44.85
2022-07-28T09:42:31.879Z,45.03
2022-07-28T09:43:31.880Z,44.53
2022-07-28T09:44:31.879Z,43.62
2022-07-28T09:45:31.841Z,43.60
2022-07-28T09:46:32.196Z,42.50
2022-07-28T09:47:32.245Z,42.88
2022-07-28T09:48:31.998Z,42.68
2022-07-28T09:49:31.921Z,43.08
2022-07-28T09:50:31.841Z,42.68
2022-07-28T09:51:31.778Z,42.50
2022-07-28T09:52:36.810Z,43.08
2022-07-28T09:53:31.755Z,42.68
2022-07-28T09:54:31.754Z,42.98
2022-07-28T09:55:31.735Z,43.60
2022-07-28T09:56:31.739Z,43.30
2022-07-28T09:57:31.713Z,43.10
2022-07-28T09:58:31.702Z,43.30
2022-07-28T09:59:31.711Z,43.60
2022-07-28T10:00:31.700Z,43.20
2022-07-28T10:01:35.752Z,42.90
2022-07-28T10:02:32.728Z,42.71
2022-07-28T10:03:36.671Z,42.90
2022-07-28T10:04:31.665Z,42.60
2022-07-28T10:05:31.634Z,42.90
2022-07-28T10:06:31.614Z,43.30
2022-07-28T10:07:31.603Z,42.80
2022-07-28T10:08:31.603Z,42.90
2022-07-28T10:09:31.590Z,43.00
2022-07-28T10:10:31.567Z,42.90
2022-07-28T10:11:31.583Z,41.71
2022-07-28T10:12:31.549Z,42.80
2022-07-28T10:13:31.542Z,42.50
2022-07-28T10:14:36.589Z,42.90
2022-07-28T10:15:31.652Z,42.90
2022-07-28T10:16:31.657Z,42.71
2022-07-28T10:17:31.514Z,42.63
2022-07-28T10:18:31.499Z,43.00
2022-07-28T10:19:31.487Z,41.31
2022-07-28T10:20:31.468Z,41.61
2022-07-28T10:21:31.452Z,41.71
2022-07-28T10:22:31.444Z,41.91
2022-07-28T10:23:31.430Z,41.53
2022-07-28T10:24:31.440Z,41.85
2022-07-28T10:25:36.440Z,41.55
2022-07-28T10:26:31.393Z,42.65
2022-07-28T10:27:31.379Z,42.85
2022-07-28T10:28:31.403Z,43.14
2022-07-28T10:29:31.372Z,42.52
2022-07-28T10:30:31.397Z,41.73
2022-07-28T10:31:31.466Z,41.33
2022-07-28T10:32:31.343Z,41.33
2022-07-28T10:33:31.320Z,42.03
2022-07-28T10:34:31.315Z,41.83
2022-07-28T10:35:31.292Z,41.63
2022-07-28T10:36:36.361Z,41.91
2022-07-28T10:37:31.270Z,41.91
2022-07-28T10:38:31.259Z,41.31
2022-07-28T10:39:31.257Z,41.39
2022-07-28T10:40:31.241Z,41.81
2022-07-28T10:41:31.225Z,41.91
2022-07-28T10:42:31.215Z,41.93
2022-07-28T10:43:31.207Z,41.22
2022-07-28T10:44:31.220Z,41.71
2022-07-28T10:46:02.641Z,41.52
2022-07-28T10:46:32.240Z,41.52
2022-07-28T10:47:36.577Z,40.52
2022-07-28T10:48:31.157Z,40.62
2022-07-28T10:49:32.733Z,41.02
2022-07-28T10:50:31.131Z,41.52
2022-07-28T10:51:31.122Z,41.12
2022-07-28T10:52:46.897Z,41.10
2022-07-28T10:53:32.101Z,40.23
2022-07-28T10:54:31.095Z,40.60
2022-07-28T10:55:31.664Z,41.00
2022-07-28T10:56:31.064Z,41.10
2022-07-28T10:57:31.059Z,40.98
2022-07-28T10:58:36.067Z,40.70
2022-07-28T10:59:31.042Z,40.68
2022-07-28T11:00:46.644Z,40.48
2022-07-28T11:01:47.683Z,40.17
2022-07-28T11:02:32.159Z,40.07
2022-07-28T11:03:31.178Z,40.86
2022-07-28T11:04:30.989Z,40.37
2022-07-28T11:05:30.962Z,40.17
2022-07-28T11:06:30.987Z,40.37
2022-07-28T11:07:30.993Z,40.94
2022-07-28T11:08:30.973Z,40.15
2022-07-28T11:09:35.954Z,40.55
2022-07-28T11:10:30.909Z,40.84
2022-07-28T11:11:30.897Z,40.25
2022-07-28T11:12:31.889Z,40.25
2022-07-28T11:13:33.035Z,40.13
2022-07-28T11:14:30.869Z,39.32
2022-07-28T11:15:32.164Z,39.24
2022-07-28T11:16:36.057Z,39.73
2022-07-28T11:17:33.399Z,39.54
2022-07-28T11:18:30.822Z,39.54
2022-07-28T11:19:40.271Z,39.14
2022-07-28T11:20:36.846Z,38.84
2022-07-28T11:21:39.502Z,38.82
2022-07-28T11:22:32.114Z,39.68
2022-07-28T11:23:30.788Z,38.35
2022-07-28T11:24:30.766Z,37.83
2022-07-28T11:25:30.763Z,37.41
2022-07-28T11:26:30.738Z,35.72
2022-07-28T11:27:30.727Z,36.10
2022-07-28T11:28:30.715Z,35.77
2022-07-28T11:29:30.703Z,34.49
2022-07-28T11:30:30.733Z,34.08
2022-07-28T11:31:30.693Z,34.06
2022-07-28T11:32:40.808Z,34.05
2022-07-28T11:33:36.682Z,34.03
2022-07-28T11:34:31.672Z,32.95
2022-07-28T11:35:30.677Z,33.43
2022-07-28T11:36:30.638Z,32.84
2022-07-28T11:37:30.627Z,33.15
2022-07-28T11:38:30.612Z,31.87
2022-07-28T11:39:30.600Z,32.84
2022-07-28T11:40:31.616Z,33.05
2022-07-28T11:41:30.746Z,32.95
2022-07-28T11:42:30.815Z,32.57
2022-07-28T11:43:37.436Z,33.79
2022-07-28T11:44:31.556Z,34.49
2022-07-28T11:45:37.763Z,34.89
2022-07-28T11:46:37.572Z,35.10
2022-07-28T11:47:30.529Z,35.00
2022-07-28T11:48:30.507Z,35.61
2022-07-28T11:49:30.581Z,35.92
2022-07-28T11:50:30.498Z,35.72
2022-07-28T11:51:30.472Z,35.74
2022-07-28T11:52:30.530Z,36.65
2022-07-28T11:53:30.451Z,36.38
2022-07-28T11:54:30.447Z,37.66
2022-07-28T11:55:55.391Z,37.57
2022-07-28T11:56:31.421Z,37.87
2022-07-28T11:57:35.432Z,37.68
2022-07-28T11:58:30.424Z,38.10
2022-07-28T11:59:36.904Z,38.79
2022-07-28T12:00:31.396Z,38.00
2022-07-28T12:01:31.827Z,37.87
2022-07-28T12:02:30.468Z,37.85
2022-07-28T12:03:38.605Z,37.12
2022-07-28T12:04:31.649Z,35.53
2022-07-28T12:05:34.286Z,35.25
2022-07-28T12:06:31.328Z,35.92
2022-07-28T12:07:30.764Z,35.51
2022-07-28T12:08:30.294Z,34.99
2022-07-28T12:09:39.772Z,34.28
2022-07-28T12:10:53.899Z,34.78
2022-07-28T12:11:31.288Z,34.59
2022-07-28T12:12:30.280Z,35.78
2022-07-28T12:13:30.242Z,35.92
2022-07-28T12:14:30.233Z,35.92
2022-07-28T12:15:30.221Z,36.51
2022-07-28T12:16:30.316Z,35.64
2022-07-28T12:17:30.229Z,35.46
2022-07-28T12:18:30.190Z,37.04
2022-07-28T12:19:32.723Z,36.57
2022-07-28T12:20:30.170Z,36.33
2022-07-28T12:21:30.166Z,35.72
2022-07-28T12:22:30.152Z,35.59
2022-07-28T12:23:45.839Z,35.49
2022-07-28T12:24:31.156Z,34.70
2022-07-28T12:25:31.113Z,34.69
2022-07-28T12:26:31.149Z,34.08
2022-07-28T12:27:31.887Z,34.67
2022-07-28T12:28:30.086Z,34.15
2022-07-28T12:29:35.561Z,33.54
2022-07-28T12:30:31.066Z,33.04
2022-07-28T12:31:30.154Z,31.94
2022-07-28T12:32:30.042Z,32.73
2022-07-28T12:33:30.043Z,33.43
2022-07-28T12:34:30.037Z,32.66
2022-07-28T12:35:30.012Z,32.76
2022-07-28T12:36:35.034Z,32.45
2022-07-28T12:37:29.992Z,32.73
2022-07-28T12:38:29.984Z,32.22
2022-07-28T12:39:29.969Z,32.22
2022-07-28T12:40:29.963Z,31.93
2022-07-28T12:41:29.989Z,32.43
2022-07-28T12:42:29.939Z,32.04
2022-07-28T12:43:29.929Z,32.25
2022-07-28T12:44:29.917Z,32.84
2022-07-28T12:45:29.953Z,33.75
2022-07-28T12:46:29.909Z,34.16
2022-07-28T12:47:34.906Z,34.18
2022-07-28T12:48:29.878Z,33.80
2022-07-28T12:49:29.863Z,34.61
2022-07-28T12:50:29.943Z,34.51
2022-07-28T12:51:29.852Z,34.70
2022-07-28T12:52:29.861Z,35.61
2022-07-28T12:53:29.825Z,35.92
2022-07-28T12:54:29.814Z,35.43
2022-07-28T12:55:29.802Z,35.84
2022-07-28T12:56:29.811Z,36.05
2022-07-28T12:57:29.787Z,36.57
2022-07-28T12:58:34.797Z,35.97
2022-07-28T12:59:29.781Z,36.46
2022-07-28T13:00:29.781Z,36.57
2022-07-28T13:01:29.777Z,36.46
2022-07-28T13:02:29.825Z,36.66
2022-07-28T13:03:29.715Z,36.27
2022-07-28T13:04:29.732Z,37.96
2022-07-28T13:05:29.698Z,36.98
2022-07-28T13:06:29.685Z,36.96
2022-07-28T13:07:29.707Z,36.78
2022-07-28T13:08:29.731Z,36.88
2022-07-28T13:09:32.864Z,37.17
2022-07-28T13:10:31.286Z,37.07
2022-07-28T13:11:45.878Z,36.38
2022-07-28T13:12:30.673Z,36.68
2022-07-28T13:13:29.633Z,36.66
2022-07-28T13:14:29.603Z,36.48
2022-07-28T13:15:29.592Z,37.17
2022-07-28T13:16:29.645Z,36.98
2022-07-28T13:17:29.635Z,36.29
2022-07-28T13:18:29.612Z,37.47
2022-07-28T13:19:29.562Z,38.06
2022-07-28T13:20:29.535Z,37.57
2022-07-28T13:21:29.524Z,37.88
2022-07-28T13:22:29.528Z,37.66
2022-07-28T13:23:29.502Z,37.39
2022-07-28T13:24:34.528Z,37.98
2022-07-28T13:25:29.503Z,37.78
2022-07-28T13:26:29.499Z,37.76
2022-07-28T13:27:29.466Z,37.88
2022-07-28T13:28:29.449Z,37.76
2022-07-28T13:29:29.439Z,37.78
2022-07-28T13:30:29.430Z,37.68
2022-07-28T13:31:29.525Z,37.68
2022-07-28T13:32:29.617Z,37.68
2022-07-28T13:33:29.581Z,37.78
2022-07-28T13:34:29.388Z,37.78
2022-07-28T13:35:29.380Z,37.39
2022-07-28T13:36:29.675Z,37.98
2022-07-28T13:37:34.389Z,37.78
2022-07-28T13:38:29.369Z,38.08
2022-07-28T13:39:29.401Z,38.47
2022-07-28T13:40:29.318Z,37.60
2022-07-28T13:41:57.020Z,38.00
2022-07-28T13:42:30.306Z,37.70
2022-07-28T13:43:36.015Z,38.10
2022-07-28T13:44:30.405Z,37.51
2022-07-28T13:45:30.266Z,37.51
2022-07-28T13:46:29.256Z,38.20
2022-07-28T13:47:35.782Z,37.70
2022-07-28T13:48:30.238Z,37.90
2022-07-28T13:49:29.332Z,37.90
2022-07-28T13:50:34.234Z,37.90
2022-07-28T13:51:29.202Z,38.10
2022-07-28T13:52:34.618Z,37.60
2022-07-28T13:53:30.179Z,37.92
2022-07-28T13:54:29.177Z,37.62
2022-07-28T13:55:29.200Z,37.90
2022-07-28T13:56:29.146Z,38.10
2022-07-28T13:57:29.148Z,38.49
2022-07-28T13:58:29.128Z,38.29
2022-07-28T13:59:29.112Z,37.29
2022-07-28T14:00:29.109Z,37.59
2022-07-28T14:01:35.069Z,37.68
2022-07-28T14:02:29.129Z,37.78
2022-07-28T14:03:29.129Z,38.18
2022-07-28T14:04:30.060Z,38.47
2022-07-28T14:05:32.057Z,38.87
2022-07-28T14:06:29.040Z,38.28
2022-07-28T14:07:29.027Z,38.47
2022-07-28T14:08:29.029Z,38.47
2022-07-28T14:09:29.009Z,38.28
2022-07-28T14:10:29.000Z,38.18
2022-07-28T14:11:28.988Z,37.78
2022-07-28T14:12:34.996Z,37.68
2022-07-28T14:13:31.723Z,37.39
2022-07-28T14:14:29.953Z,37.98
2022-07-28T14:15:28.943Z,37.98
2022-07-28T14:16:28.971Z,37.60
2022-07-28T14:17:46.028Z,38.69
2022-07-28T14:18:29.921Z,37.68
2022-07-28T14:19:38.580Z,38.10
2022-07-28T14:20:29.892Z,37.60
2022-07-28T14:21:28.878Z,38.20
2022-07-28T14:22:28.874Z,38.49
2022-07-28T14:23:33.921Z,38.29
2022-07-28T14:24:28.849Z,38.20
2022-07-28T14:25:44.215Z,38.29
2022-07-28T14:26:36.888Z,38.00
2022-07-28T14:27:29.819Z,37.70
2022-07-28T14:28:28.814Z,37.60
2022-07-28T14:29:28.791Z,38.20
2022-07-28T14:30:28.783Z,38.29
2022-07-28T14:31:28.913Z,38.59
2022-07-28T14:32:28.758Z,38.39
2022-07-28T14:33:28.767Z,38.10
2022-07-28T14:34:34.348Z,37.92
2022-07-28T14:35:28.731Z,37.51
2022-07-28T14:36:28.718Z,37.82
2022-07-28T14:37:28.703Z,38.02
2022-07-28T14:38:51.926Z,38.31
2022-07-28T14:39:29.704Z,38.21
2022-07-28T14:40:28.697Z,38.69
2022-07-28T14:41:28.760Z,38.21
2022-07-28T14:42:28.649Z,38.51
2022-07-28T14:43:28.648Z,38.29
2022-07-28T14:44:28.624Z,38.41
2022-07-28T14:45:33.647Z,38.81
2022-07-28T14:46:30.052Z,38.61
2022-07-28T14:47:45.318Z,38.31
2022-07-28T14:48:29.591Z,37.92
2022-07-28T14:49:28.727Z,38.61
2022-07-28T14:50:28.568Z,38.21
2022-07-28T14:51:28.553Z,38.02
2022-07-28T14:52:28.542Z,37.90
2022-07-28T14:53:28.536Z,38.10
2022-07-28T14:54:28.622Z,38.59
2022-07-28T14:55:28.511Z,38.79
2022-07-28T14:56:33.515Z,39.00
2022-07-28T14:57:48.159Z,38.59
2022-07-28T14:58:29.481Z,38.39
2022-07-28T14:59:28.565Z,37.70
2022-07-28T15:00:28.449Z,37.80
2022-07-28T15:01:28.462Z,37.90
2022-07-28T15:02:29.789Z,37.90
2022-07-28T15:03:30.722Z,37.90
2022-07-28T15:04:29.406Z,37.90
2022-07-28T15:05:28.400Z,38.00
2022-07-28T15:06:28.388Z,37.41
2022-07-28T15:07:33.405Z,38.00
2022-07-28T15:08:29.462Z,38.98
2022-07-28T15:09:28.352Z,38.39
2022-07-28T15:10:28.340Z,38.59
2022-07-28T15:11:28.331Z,38.21
2022-07-28T15:12:28.318Z,38.61
2022-07-28T15:13:28.562Z,38.61
2022-07-28T15:14:28.296Z,37.90
2022-07-28T15:15:28.286Z,38.51
2022-07-28T15:16:28.497Z,38.31
2022-07-28T15:17:28.272Z,37.90
2022-07-28T15:18:33.570Z,38.61
2022-07-28T15:19:28.244Z,38.49
2022-07-28T15:20:28.231Z,38.49
2022-07-28T15:21:30.871Z,38.59
2022-07-28T15:22:29.215Z,38.51
2022-07-28T15:23:28.210Z,38.69
2022-07-28T15:24:28.188Z,38.39
2022-07-28T15:25:28.178Z,38.79
2022-07-28T15:26:28.165Z,38.10
2022-07-28T15:27:33.091Z,38.20
2022-07-28T15:28:29.236Z,37.88
2022-07-28T15:29:35.542Z,37.88
2022-07-28T15:30:28.123Z,37.68
2022-07-28T15:31:29.543Z,38.18
2022-07-28T15:32:28.569Z,37.98
2022-07-28T15:33:28.123Z,37.57
2022-07-28T15:34:28.085Z,37.59
2022-07-28T15:35:28.106Z,37.66
2022-07-28T15:36:29.111Z,37.88
2022-07-28T15:37:28.150Z,37.88
2022-07-28T15:38:28.109Z,37.29
2022-07-28T15:39:28.046Z,37.87
2022-07-28T15:40:33.035Z,38.08
2022-07-28T15:41:28.009Z,37.37
2022-07-28T15:42:27.993Z,38.16
2022-07-28T15:43:27.991Z,37.78
2022-07-28T15:44:27.970Z,37.49
2022-07-28T15:45:27.961Z,37.59
2022-07-28T15:46:27.987Z,37.49
2022-07-28T15:47:27.940Z,37.39
2022-07-28T15:48:27.936Z,38.08
2022-07-28T15:49:27.945Z,37.88
2022-07-28T15:50:27.910Z,37.70
2022-07-28T15:51:32.921Z,37.78
2022-07-28T15:52:27.895Z,38.00
2022-07-28T15:53:27.892Z,38.08
2022-07-28T15:54:27.863Z,38.00
2022-07-28T15:55:27.861Z,38.10
2022-07-28T15:56:27.841Z,38.00
2022-07-28T15:57:37.786Z,37.98
2022-07-28T15:58:28.828Z,37.30
2022-07-28T15:59:49.476Z,37.70
2022-07-28T16:00:28.795Z,37.78
2022-07-28T16:01:27.881Z,38.18
2022-07-28T16:02:32.825Z,37.68
2022-07-28T16:03:27.978Z,37.78
2022-07-28T16:04:27.753Z,37.98
2022-07-28T16:05:27.743Z,37.78
2022-07-28T16:06:27.825Z,37.88
2022-07-28T16:07:27.725Z,37.68
2022-07-28T16:08:27.761Z,37.59
2022-07-28T16:09:46.543Z,37.49
2022-07-28T16:10:28.689Z,37.98
2022-07-28T16:11:27.677Z,37.88
2022-07-28T16:12:27.667Z,38.08
2022-07-28T16:13:36.514Z,37.78
2022-07-28T16:14:27.648Z,38.57
2022-07-28T16:15:27.636Z,38.37
2022-07-28T16:16:27.718Z,38.47
2022-07-28T16:17:27.621Z,38.10
2022-07-28T16:18:27.614Z,37.90
2022-07-28T16:19:47.905Z,37.90
2022-07-28T16:20:28.613Z,38.79
2022-07-28T16:21:27.573Z,38.28
2022-07-28T16:22:27.570Z,37.80
2022-07-28T16:23:27.565Z,37.80
2022-07-28T16:24:32.566Z,37.80
2022-07-28T16:25:27.528Z,38.20
2022-07-28T16:26:27.514Z,37.80
2022-07-28T16:27:27.505Z,37.80
2022-07-28T16:28:27.500Z,37.80
2022-07-28T16:29:27.513Z,38.00
2022-07-28T16:30:27.480Z,37.62
2022-07-28T16:31:27.527Z,38.00
2022-07-28T16:32:27.447Z,37.72
2022-07-28T16:33:27.438Z,37.82
2022-07-28T16:34:28.436Z,37.82
2022-07-28T16:35:32.450Z,37.80
2022-07-28T16:36:27.413Z,38.00
2022-07-28T16:37:27.394Z,38.00
2022-07-28T16:38:27.391Z,37.01
2022-07-28T16:39:27.372Z,37.92
2022-07-28T16:40:27.361Z,37.80
2022-07-28T16:41:47.006Z,37.80
2022-07-28T16:42:28.338Z,37.72
2022-07-28T16:43:27.345Z,38.02
2022-07-28T16:44:27.315Z,37.52
2022-07-28T16:45:30.810Z,37.43
2022-07-28T16:46:32.354Z,38.12
2022-07-28T16:47:27.287Z,37.72
2022-07-28T16:48:27.288Z,37.32
2022-07-28T16:49:27.399Z,38.21
2022-07-28T16:50:27.397Z,38.12
2022-07-28T16:51:27.243Z,37.82
2022-07-28T16:52:27.228Z,37.62